Time;durP1;ratioP1;P1;durP2;ratioP2;P2;SDS_P1;SDS_P2;PMS_P1;PMS_P2;Temp;Humidity;BMP_temperature;BMP_pressure;BME280_temperature;BME280_humidity;BME280_pressure;Samples;Min_cycle;Max_cycle;Signal;HPM_P1;HPM_P2
2021/12/09 00:01:44;;;;;;;3.93;3.00;;;;;;;;;;5025639;28;20289;-81
2021/12/09 00:04:14;;;;;;;6.67;3.40;;;;;;;;;;5036351;28;20220;-81
2021/12/09 00:06:42;;;;;;;4.43;3.10;;;;;;;;;;5034914;28;20227;-81
2021/12/09 00:09:14;;;;;;;7.77;3.70;;;;;;;;;;5030304;28;20202;-81
2021/12/09 00:11:44;;;;;;;6.73;3.43;;;;;;;;;;5024393;28;20218;-81
2021/12/09 00:14:13;;;;;;;5.77;3.20;;;;;;;;;;5022790;28;20202;-81
2021/12/09 00:16:40;;;;;;;8.03;4.27;;;;;;;;;;5032807;28;20222;-81
2021/12/09 00:19:08;;;;;;;8.20;3.50;;;;;;;;;;5022046;28;20241;-81
2021/12/09 00:21:36;;;;;;;8.43;3.70;;;;;;;;;;5030732;28;20233;-81
2021/12/09 00:24:04;;;;;;;6.63;3.27;;;;;;;;;;5023819;28;20221;-81
2021/12/09 00:26:31;;;;;;;9.50;3.70;;;;;;;;;;5038993;28;20217;-81
2021/12/09 00:29:00;;;;;;;8.37;3.37;;;;;;;;;;5029991;28;20277;-81
2021/12/09 00:31:27;;;;;;;7.73;4.07;;;;;;;;;;5032020;28;20282;-81
2021/12/09 00:33:56;;;;;;;9.27;3.73;;;;;;;;;;5028056;28;20233;-82
2021/12/09 00:36:31;;;;;;;7.50;3.67;;;;;;;;;;5032157;28;20210;-82
2021/12/09 00:39:01;;;;;;;6.70;3.83;;;;;;;;;;5022965;28;20233;-82
2021/12/09 00:41:28;;;;;;;9.97;4.77;;;;;;;;;;5022619;28;20211;-81
2021/12/09 00:43:56;;;;;;;13.27;4.40;;;;;;;;;;5027603;28;20262;-81
2021/12/09 00:46:23;;;;;;;7.10;3.77;;;;;;;;;;5038999;28;20284;-82
2021/12/09 00:48:51;;;;;;;9.50;4.20;;;;;;;;;;5034580;28;20203;-81
2021/12/09 00:51:19;;;;;;;7.57;4.30;;;;;;;;;;5028593;28;20222;-82
2021/12/09 00:53:46;;;;;;;10.87;4.00;;;;;;;;;;5028207;28;20240;-82
2021/12/09 00:56:16;;;;;;;13.30;4.30;;;;;;;;;;5030501;28;20226;-81
2021/12/09 00:58:44;;;;;;;7.83;4.67;;;;;;;;;;5025691;28;20304;-80
2021/12/09 01:01:16;;;;;;;7.37;4.20;;;;;;;;;;5029115;28;20284;-82
2021/12/09 01:03:45;;;;;;;8.00;3.80;;;;;;;;;;5031108;28;20224;-81
2021/12/09 01:06:12;;;;;;;9.97;4.53;;;;;;;;;;5000737;28;20309;-81
2021/12/09 01:08:41;;;;;;;9.57;4.57;;;;;;;;;;5028822;28;20250;-81
2021/12/09 01:11:08;;;;;;;8.13;4.80;;;;;;;;;;5025618;28;20218;-81
2021/12/09 01:13:37;;;;;;;14.93;5.30;;;;;;;;;;5030751;28;20265;-81
2021/12/09 01:16:05;;;;;;;7.93;4.30;;;;;;;;;;5027946;28;20202;-81
2021/12/09 01:18:32;;;;;;;11.20;4.67;;;;;;;;;;5035733;28;20234;-82
2021/12/09 01:21:01;;;;;;;13.57;4.53;;;;;;;;;;5025742;28;20222;-81
2021/12/09 01:23:29;;;;;;;14.53;5.63;;;;;;;;;;5035494;28;20234;-81
2021/12/09 01:26:01;;;;;;;30.60;6.90;;;;;;;;;;5034307;28;20218;-81
2021/12/09 01:28:32;;;;;;;13.30;5.20;;;;;;;;;;5028952;28;20242;-81
2021/12/09 01:31:02;;;;;;;14.47;5.37;;;;;;;;;;5028551;28;20268;-81
2021/12/09 01:33:31;;;;;;;35.37;6.37;;;;;;;;;;5032516;28;20236;-81
2021/12/09 01:35:58;;;;;;;15.83;5.43;;;;;;;;;;5032448;28;20210;-81
2021/12/09 01:38:29;;;;;;;10.67;5.00;;;;;;;;;;5029685;28;20262;-81
2021/12/09 01:40:57;;;;;;;16.43;5.93;;;;;;;;;;5036544;28;20202;-81
2021/12/09 01:43:27;;;;;;;13.53;5.97;;;;;;;;;;5023977;28;20237;-81
2021/12/09 01:46:04;;;;;;;11.83;5.60;;;;;;;;;;5032933;28;20281;-81
2021/12/09 01:48:31;;;;;;;13.77;5.30;;;;;;;;;;5028041;28;20256;-81
2021/12/09 01:51:05;;;;;;;11.60;5.70;;;;;;;;;;5025971;28;20304;-81
2021/12/09 01:53:32;;;;;;;12.20;5.47;;;;;;;;;;5041058;28;20210;-81
2021/12/09 01:56:00;;;;;;;13.07;5.50;;;;;;;;;;5029935;28;20282;-81
2021/12/09 01:58:27;;;;;;;14.97;5.53;;;;;;;;;;5023927;28;20424;-81
2021/12/09 02:00:55;;;;;;;16.93;5.60;;;;;;;;;;5029884;28;20261;-81
2021/12/09 02:03:23;;;;;;;12.30;5.77;;;;;;;;;;5026819;28;20229;-81
2021/12/09 02:05:50;;;;;;;9.90;5.43;;;;;;;;;;5022917;28;20238;-81
2021/12/09 02:08:18;;;;;;;16.70;5.93;;;;;;;;;;5022391;28;20705;-81
2021/12/09 02:10:47;;;;;;;11.93;5.70;;;;;;;;;;5021689;28;20297;-81
2021/12/09 02:13:17;;;;;;;12.80;6.00;;;;;;;;;;5022191;28;20266;-81
2021/12/09 02:15:44;;;;;;;17.23;7.43;;;;;;;;;;5024640;28;20203;-83
2021/12/09 02:18:12;;;;;;;20.07;7.90;;;;;;;;;;5030102;28;20285;-81
2021/12/09 02:20:42;;;;;;;21.77;7.73;;;;;;;;;;5028752;28;20207;-81
2021/12/09 02:23:12;;;;;;;18.87;7.43;;;;;;;;;;5004658;28;20210;-81
2021/12/09 02:25:44;;;;;;;23.87;7.47;;;;;;;;;;5028529;28;20225;-81
2021/12/09 02:28:11;;;;;;;30.00;10.10;;;;;;;;;;5032751;28;20217;-81
2021/12/09 02:30:40;;;;;;;26.83;10.10;;;;;;;;;;5024334;28;20298;-81
2021/12/09 02:33:09;;;;;;;26.47;10.30;;;;;;;;;;5028949;28;20278;-81
2021/12/09 02:35:38;;;;;;;27.17;11.70;;;;;;;;;;5027879;28;20203;-81
2021/12/09 02:38:08;;;;;;;23.57;10.77;;;;;;;;;;5031962;28;20230;-81
2021/12/09 02:40:36;;;;;;;22.00;12.33;;;;;;;;;;5036396;28;20207;-81
2021/12/09 02:43:05;;;;;;;28.13;13.97;;;;;;;;;;5023441;28;20230;-81
2021/12/09 02:45:32;;;;;;;27.40;13.07;;;;;;;;;;5037960;28;20219;-81
2021/12/09 02:48:02;;;;;;;25.70;11.87;;;;;;;;;;5034639;28;20253;-81
2021/12/09 02:50:29;;;;;;;24.67;13.23;;;;;;;;;;5024905;28;20248;-81
2021/12/09 02:52:57;;;;;;;30.23;13.70;;;;;;;;;;5032470;28;20213;-80
2021/12/09 02:55:26;;;;;;;25.83;13.50;;;;;;;;;;5028191;28;20268;-80
2021/12/09 03:28:06;;;;;;;21.50;11.97;;;;;;;;;;5018055;28;20287;-80
2021/12/09 03:48:04;;;;;;;20.00;12.60;;;;;;;;;;5021019;28;20213;-81
2021/12/09 03:50:32;;;;;;;24.53;12.30;;;;;;;;;;5020262;28;20261;-83
2021/12/09 03:52:59;;;;;;;26.13;12.07;;;;;;;;;;5024069;28;20270;-83
2021/12/09 03:55:27;;;;;;;22.60;12.00;;;;;;;;;;5022820;28;20288;-84
2021/12/09 03:57:55;;;;;;;21.70;11.77;;;;;;;;;;5022277;28;20210;-81
2021/12/09 04:00:23;;;;;;;19.93;11.07;;;;;;;;;;5020592;28;20309;-82
2021/12/09 04:02:50;;;;;;;18.17;11.70;;;;;;;;;;5021266;28;20289;-81
2021/12/09 04:05:20;;;;;;;20.60;11.13;;;;;;;;;;5021647;28;20207;-82
2021/12/09 04:07:47;;;;;;;20.80;11.67;;;;;;;;;;5016143;28;20234;-81
2021/12/09 04:12:57;;;;;;;23.20;11.30;;;;;;;;;;6026954;22;21395;-83
2021/12/09 04:15:25;;;;;;;20.47;11.13;;;;;;;;;;5038093;28;20317;-82
2021/12/09 04:24:06;;;;;;;15.80;9.63;;;;;;;;;;5036800;28;20217;-84
2021/12/09 04:26:33;;;;;;;19.67;10.30;;;;;;;;;;5059325;22;20248;-86
2021/12/09 04:29:01;;;;;;;16.13;9.40;;;;;;;;;;5035516;28;20252;-84
2021/12/09 04:31:28;;;;;;;14.53;9.00;;;;;;;;;;5034628;28;20197;-85
2021/12/09 04:33:56;;;;;;;15.43;9.13;;;;;;;;;;5035220;28;20763;-86
2021/12/09 04:36:27;;;;;;;15.07;8.73;;;;;;;;;;5035671;28;20241;-85
2021/12/09 04:38:55;;;;;;;14.93;8.70;;;;;;;;;;5036313;28;20259;-86
2021/12/09 04:41:24;;;;;;;16.07;8.43;;;;;;;;;;5036049;28;20202;-85
2021/12/09 04:43:58;;;;;;;11.83;7.70;;;;;;;;;;5029579;28;20194;-85
2021/12/09 04:46:27;;;;;;;10.13;6.53;;;;;;;;;;5036060;28;20221;-85
2021/12/09 04:48:54;;;;;;;12.30;7.00;;;;;;;;;;5030636;28;20194;-85
2021/12/09 04:51:37;;;;;;;11.43;6.40;;;;;;;;;;5038510;28;20218;-86
2021/12/09 04:54:05;;;;;;;12.03;6.70;;;;;;;;;;5036802;28;20294;-86
2021/12/09 04:56:34;;;;;;;13.37;6.27;;;;;;;;;;5036149;28;20230;-85
2021/12/09 04:59:02;;;;;;;10.27;6.27;;;;;;;;;;5036852;28;20197;-85
2021/12/09 05:01:30;;;;;;;9.53;6.50;;;;;;;;;;5037307;28;20206;-86
2021/12/09 05:03:57;;;;;;;11.60;5.70;;;;;;;;;;5037856;28;20205;-86
2021/12/09 05:06:44;;;;;;;8.70;5.30;;;;;;;;;;5036663;28;20225;-86
2021/12/09 05:09:20;;;;;;;8.97;5.03;;;;;;;;;;5034168;28;20208;-85
2021/12/09 05:11:51;;;;;;;10.60;5.47;;;;;;;;;;5036740;28;20205;-86
2021/12/09 05:17:27;;;;;;;9.90;5.20;;;;;;;;;;4959267;29;20227;-86
2021/12/09 05:19:56;;;;;;;9.47;5.33;;;;;;;;;;4960336;29;20299;-85
2021/12/09 05:22:25;;;;;;;9.43;5.33;;;;;;;;;;4958575;29;20200;-85
2021/12/09 05:24:54;;;;;;;8.90;5.17;;;;;;;;;;4952713;29;20209;-85
2021/12/09 05:27:23;;;;;;;9.40;5.13;;;;;;;;;;4957218;28;20277;-86
2021/12/09 05:30:03;;;;;;;9.27;5.23;;;;;;;;;;4958470;29;20258;-86
2021/12/09 05:32:50;;;;;;;7.63;5.10;;;;;;;;;;4953631;29;20279;-85
2021/12/09 05:35:18;;;;;;;6.37;5.30;;;;;;;;;;4956056;29;20205;-85
2021/12/09 05:37:48;;;;;;;7.87;5.17;;;;;;;;;;4955957;28;20220;-86
2021/12/09 05:40:21;;;;;;;6.47;4.80;;;;;;;;;;4955740;28;20300;-83
2021/12/09 05:54:47;;;;;;;9.87;5.20;;;;;;;;;;5486849;22;20217;-83
2021/12/09 06:03:48;;;;;;;8.80;5.30;;;;;;;;;;5070825;28;20627;-82
2021/12/09 06:12:29;;;;;;;7.40;5.00;;;;;;;;;;4861096;29;20264;-83
2021/12/09 10:02:25;;;;;;;4.00;3.57;;;;;;;;;;4634792;30;20217;-81
2021/12/09 10:05:00;;;;;;;5.87;3.70;;;;;;;;;;4688221;30;20283;-81
2021/12/09 10:07:28;;;;;;;4.33;3.67;;;;;;;;;;4760013;30;20227;-81
2021/12/09 10:09:55;;;;;;;5.23;4.33;;;;;;;;;;4779014;30;20235;-82
2021/12/09 10:12:22;;;;;;;5.73;3.80;;;;;;;;;;4776840;30;20231;-82
2021/12/09 10:14:51;;;;;;;4.43;3.60;;;;;;;;;;4780872;30;20277;-83
2021/12/09 10:17:19;;;;;;;4.70;3.57;;;;;;;;;;4772162;30;20212;-81
2021/12/09 10:19:52;;;;;;;5.20;3.70;;;;;;;;;;4776740;30;20262;-81
2021/12/09 10:22:21;;;;;;;4.57;3.83;;;;;;;;;;4773564;30;20216;-82
2021/12/09 10:24:49;;;;;;;6.27;3.90;;;;;;;;;;4780297;30;20306;-80
2021/12/09 10:27:24;;;;;;;4.63;3.60;;;;;;;;;;4779156;30;20266;-80
2021/12/09 10:29:55;;;;;;;4.03;3.50;;;;;;;;;;4775564;30;20239;-79
2021/12/09 10:32:27;;;;;;;4.93;3.70;;;;;;;;;;4774305;30;20215;-83
2021/12/09 10:34:57;;;;;;;6.70;3.93;;;;;;;;;;4774596;30;20268;-83
2021/12/09 10:37:25;;;;;;;7.43;3.93;;;;;;;;;;4778763;30;20211;-83
2021/12/09 10:39:54;;;;;;;8.00;4.40;;;;;;;;;;4770014;30;20278;-84
2021/12/09 10:42:23;;;;;;;11.80;4.40;;;;;;;;;;4782703;30;20215;-84
2021/12/09 10:44:57;;;;;;;7.93;3.90;;;;;;;;;;4777205;30;20219;-83
2021/12/09 10:47:47;;;;;;;7.23;4.10;;;;;;;;;;4776222;30;20268;-84
2021/12/09 10:50:24;;;;;;;19.97;7.40;;;;;;;;;;4777191;30;20227;-84
2021/12/09 10:52:54;;;;;;;6.93;4.13;;;;;;;;;;4770883;30;20229;-83
2021/12/09 10:55:23;;;;;;;5.67;3.87;;;;;;;;;;4777899;30;20219;-84
2021/12/09 10:57:54;;;;;;;4.93;3.97;;;;;;;;;;4768859;30;20208;-84
2021/12/09 11:00:35;;;;;;;6.17;3.90;;;;;;;;;;4777455;30;20235;-81
2021/12/09 11:06:07;;;;;;;6.03;4.20;;;;;;;;;;4803630;29;20236;-84
2021/12/09 11:08:42;;;;;;;5.40;4.30;;;;;;;;;;4801567;29;20230;-83
2021/12/09 11:17:24;;;;;;;5.37;3.43;;;;;;;;;;4815690;29;20210;-83
2021/12/09 11:19:55;;;;;;;5.53;3.70;;;;;;;;;;4815642;29;20237;-82
2021/12/09 11:22:32;;;;;;;6.17;3.70;;;;;;;;;;4813841;29;20225;-84
2021/12/09 11:25:03;;;;;;;6.53;3.60;;;;;;;;;;4816289;29;20273;-83
2021/12/09 11:27:31;;;;;;;5.07;3.43;;;;;;;;;;4815754;29;20225;-83
2021/12/09 11:30:09;;;;;;;7.27;3.60;;;;;;;;;;4816449;29;20229;-88
2021/12/09 11:32:41;;;;;;;5.10;3.37;;;;;;;;;;4813528;29;20210;-85
2021/12/09 11:35:21;;;;;;;4.33;3.27;;;;;;;;;;4810356;29;20293;-86
2021/12/09 11:37:57;;;;;;;4.13;3.17;;;;;;;;;;4808344;29;20217;-86
2021/12/09 11:40:32;;;;;;;6.37;4.03;;;;;;;;;;4805968;29;20237;-87
2021/12/09 11:43:02;;;;;;;6.43;3.33;;;;;;;;;;4807796;29;20224;-86
2021/12/09 11:45:30;;;;;;;4.47;3.07;;;;;;;;;;4810391;29;20296;-85
2021/12/09 11:47:58;;;;;;;4.97;3.20;;;;;;;;;;4806801;29;20258;-85
2021/12/09 11:50:28;;;;;;;6.00;2.97;;;;;;;;;;4806394;29;20268;-86
2021/12/09 11:52:58;;;;;;;4.70;3.20;;;;;;;;;;4804335;29;20254;-85
2021/12/09 11:55:32;;;;;;;6.57;3.40;;;;;;;;;;4811043;29;20209;-85
2021/12/09 11:58:03;;;;;;;6.17;3.03;;;;;;;;;;4812767;29;20202;-85
2021/12/09 12:06:54;;;;;;;5.40;3.00;;;;;;;;;;4889454;29;20266;-86
2021/12/09 12:12:30;;;;;;;3.53;2.77;;;;;;;;;;4884047;29;20222;-86
2021/12/09 12:15:19;;;;;;;7.53;3.13;;;;;;;;;;4883279;29;20287;-85
2021/12/09 12:18:10;;;;;;;4.37;2.33;;;;;;;;;;4882030;29;20211;-86
2021/12/09 12:20:42;;;;;;;4.50;2.30;;;;;;;;;;4897701;29;20223;-84
2021/12/09 12:23:31;;;;;;;7.30;2.63;;;;;;;;;;4892270;29;20216;-84
2021/12/09 12:29:04;;;;;;;8.43;6.00;;;;;;;;;;4887712;29;20231;-81
2021/12/09 12:34:56;;;;;;;9.70;5.87;;;;;;;;;;4864158;29;20207;-80
2021/12/09 12:37:44;;;;;;;7.13;5.40;;;;;;;;;;4890566;29;20203;-80
2021/12/09 12:40:14;;;;;;;4.67;2.57;;;;;;;;;;4888746;29;20231;-80
2021/12/09 12:42:50;;;;;;;6.60;2.60;;;;;;;;;;4892295;29;20212;-80
2021/12/09 12:45:45;;;;;;;5.67;3.00;;;;;;;;;;4887292;29;20217;-81
2021/12/09 12:48:44;;;;;;;10.63;5.73;;;;;;;;;;4887981;29;20227;-80
2021/12/09 12:51:15;;;;;;;5.83;4.07;;;;;;;;;;4892064;29;20261;-81
2021/12/09 12:53:44;;;;;;;4.93;3.00;;;;;;;;;;4885973;29;20230;-80
2021/12/09 12:56:16;;;;;;;4.90;2.40;;;;;;;;;;4888645;29;20211;-85
2021/12/09 12:58:58;;;;;;;5.20;2.43;;;;;;;;;;4884841;29;20214;-83
2021/12/09 13:01:27;;;;;;;7.30;3.40;;;;;;;;;;4887331;29;20266;-82
2021/12/09 13:03:58;;;;;;;7.37;3.23;;;;;;;;;;4915590;29;20217;-79
2021/12/09 13:06:41;;;;;;;5.47;3.20;;;;;;;;;;4906795;29;20207;-79
2021/12/09 13:09:25;;;;;;;8.70;3.53;;;;;;;;;;4908227;29;20241;-80
2021/12/09 13:11:57;;;;;;;9.80;3.50;;;;;;;;;;4903825;29;20211;-79
2021/12/09 13:14:34;;;;;;;5.83;3.40;;;;;;;;;;4934147;23;20202;-83
2021/12/09 13:17:08;;;;;;;8.87;4.23;;;;;;;;;;4958477;28;20212;-83
2021/12/09 13:22:41;;;;;;;7.87;4.30;;;;;;;;;;4951643;29;20203;-87
2021/12/09 13:25:22;;;;;;;10.87;4.13;;;;;;;;;;4953968;28;20254;-82
2021/12/09 13:31:33;;;;;;;8.27;3.43;;;;;;;;;;4868551;29;20214;-84
2021/12/09 13:34:14;;;;;;;7.53;4.17;;;;;;;;;;4909708;29;20222;-84
2021/12/09 13:40:28;;;;;;;8.43;4.23;;;;;;;;;;4916580;29;20239;-81
2021/12/09 13:48:43;;;;;;;8.73;3.50;;;;;;;;;;4946719;28;20236;-82
2021/12/09 13:51:41;;;;;;;6.77;3.73;;;;;;;;;;4950131;29;20215;-81
2021/12/09 13:54:26;;;;;;;6.97;3.77;;;;;;;;;;4958932;28;20207;-84
2021/12/09 14:06:46;;;;;;;7.57;3.90;;;;;;;;;;4919787;29;20237;-88
2021/12/09 14:42:37;;;;;;;8.73;2.70;;;;;;;;;;4766512;30;20199;-89
2021/12/09 14:48:41;;;;;;;;;;;;;;;;;;;;;
2021/12/09 14:54:22;;;;;;;6.30;2.60;;;;;;;;;;4836767;29;20209;-82
2021/12/09 14:59:58;;;;;;;9.80;3.50;;;;;;;;;;4765195;30;20314;-79
2021/12/09 15:02:34;;;;;;;10.97;3.13;;;;;;;;;;4821004;29;20205;-86
2021/12/09 15:11:32;;;;;;;9.40;3.50;;;;;;;;;;4901535;29;20276;-80
2021/12/09 15:14:25;;;;;;;9.13;3.63;;;;;;;;;;4946759;29;20235;-82
2021/12/09 15:20:08;;;;;;;9.27;3.10;;;;;;;;;;4918069;29;20380;-82
2021/12/09 15:23:13;;;;;;;19.33;3.80;;;;;;;;;;4922854;29;20201;-82
2021/12/09 15:28:36;;;;;;;13.57;3.70;;;;;;;;;;4922589;29;20233;-81
2021/12/09 15:31:06;;;;;;;10.60;3.33;;;;;;;;;;4918896;29;20269;-80
2021/12/09 15:33:55;;;;;;;19.00;4.70;;;;;;;;;;4926768;29;20206;-82
2021/12/09 15:36:24;;;;;;;14.27;3.40;;;;;;;;;;4921434;29;20223;-80
2021/12/09 15:38:59;;;;;;;18.37;4.70;;;;;;;;;;4922071;29;20198;-81
2021/12/09 15:41:32;;;;;;;13.53;3.73;;;;;;;;;;4918621;29;20213;-79
2021/12/09 15:44:11;;;;;;;12.33;3.50;;;;;;;;;;4911800;29;20214;-85
2021/12/09 15:49:53;;;;;;;13.87;3.60;;;;;;;;;;4918982;29;20241;-82
2021/12/09 15:55:57;;;;;;;9.53;4.97;;;;;;;;;;4898168;29;20225;-81
2021/12/09 16:01:46;;;;;;;10.17;3.07;;;;;;;;;;4913526;29;20210;-80
2021/12/09 16:07:47;;;;;;;6.57;2.60;;;;;;;;;;4861309;29;20226;-82
2021/12/09 16:19:35;;;;;;;6.50;4.00;;;;;;;;;;4846899;29;20214;-80
2021/12/09 16:28:24;;;;;;;3.87;2.63;;;;;;;;;;4890857;29;20206;-82
2021/12/09 16:31:02;;;;;;;5.60;2.90;;;;;;;;;;4889084;29;20221;-81
2021/12/09 16:33:51;;;;;;;5.87;2.60;;;;;;;;;;4879964;29;20219;-80
2021/12/09 16:36:24;;;;;;;5.87;2.57;;;;;;;;;;4884509;29;20275;-81
2021/12/09 16:39:14;;;;;;;7.33;2.90;;;;;;;;;;4904820;29;20257;-81
2021/12/09 16:42:23;;;;;;;5.53;3.20;;;;;;;;;;4893343;29;20214;-81
2021/12/09 16:45:03;;;;;;;6.20;3.10;;;;;;;;;;4923077;29;20395;-81
2021/12/09 17:00:38;;;;;;;;;;;;;;;;;;;;;
2021/12/09 17:03:28;;;;;;;5.30;2.97;;;;;;;;;;4920110;29;20285;-80
2021/12/09 17:09:08;;;;;;;5.67;3.20;;;;;;;;;;4935224;29;20293;-82
2021/12/09 17:20:42;;;;;;;5.43;2.70;;;;;;;;;;4934809;29;20218;-81
2021/12/09 17:26:21;;;;;;;5.50;2.80;;;;;;;;;;4944953;28;20233;-79
2021/12/09 17:32:41;;;;;;;7.20;3.03;;;;;;;;;;4941853;29;20228;-79
2021/12/09 17:35:35;;;;;;;4.40;2.60;;;;;;;;;;4921726;29;20238;-81
2021/12/09 17:38:23;;;;;;;4.73;3.07;;;;;;;;;;4945191;29;20213;-80
2021/12/09 17:53:01;;;;;;;6.93;2.90;;;;;;;;;;4904714;29;20214;-80
2021/12/09 17:55:39;;;;;;;5.30;2.80;;;;;;;;;;4938894;29;20233;-81
2021/12/09 17:58:27;;;;;;;4.73;2.90;;;;;;;;;;4946000;29;20246;-80
2021/12/09 18:01:02;;;;;;;4.60;2.90;;;;;;;;;;4955576;29;20208;-81
2021/12/09 18:06:30;;;;;;;6.40;2.67;;;;;;;;;;4903213;29;20242;-79
2021/12/09 18:12:15;;;;;;;4.17;2.90;;;;;;;;;;4944071;29;20216;-80
2021/12/09 18:15:12;;;;;;;5.97;2.70;;;;;;;;;;4938733;29;20228;-81
2021/12/09 18:18:15;;;;;;;5.50;2.80;;;;;;;;;;4946341;29;20209;-81
2021/12/09 18:21:12;;;;;;;6.93;3.57;;;;;;;;;;4943306;29;20241;-81
2021/12/09 18:27:32;;;;;;;7.60;3.30;;;;;;;;;;4939261;28;20292;-80
2021/12/09 18:36:11;;;;;;;3.50;2.60;;;;;;;;;;4946095;29;20237;-81
2021/12/09 18:38:48;;;;;;;4.73;2.43;;;;;;;;;;4944867;29;20213;-82
2021/12/09 18:41:27;;;;;;;7.93;2.77;;;;;;;;;;4944616;29;20209;-81
2021/12/09 18:44:11;;;;;;;5.53;2.80;;;;;;;;;;4945176;29;20827;-81
2021/12/09 18:49:54;;;;;;;4.77;2.40;;;;;;;;;;4944827;29;20233;-81
2021/12/09 18:52:38;;;;;;;4.63;2.70;;;;;;;;;;4942931;29;20272;-81
2021/12/09 19:14:08;;;;;;;4.23;2.50;;;;;;;;;;4943185;28;20233;-80
2021/12/09 19:17:14;;;;;;;3.33;2.50;;;;;;;;;;4941023;29;20212;-81
2021/12/09 19:19:56;;;;;;;5.40;2.40;;;;;;;;;;4940782;29;20691;-81
2021/12/09 19:25:33;;;;;;;4.50;2.60;;;;;;;;;;4939232;29;20228;-83
2021/12/09 19:28:20;;;;;;;6.27;2.77;;;;;;;;;;4928320;29;20212;-83
2021/12/09 19:47:18;;;;;;;3.30;2.20;;;;;;;;;;5040384;28;20208;-83
2021/12/09 19:58:39;;;;;;;5.00;2.37;;;;;;;;;;5010076;28;20315;-85
2021/12/09 20:04:44;;;;;;;4.00;2.20;;;;;;;;;;4997648;28;20253;-85
2021/12/09 20:07:30;;;;;;;4.43;2.30;;;;;;;;;;4921091;29;20228;-84
2021/12/09 20:16:45;;;;;;;5.57;2.80;;;;;;;;;;4739608;30;20212;-82
2021/12/09 20:37:11;;;;;;;5.87;2.83;;;;;;;;;;5151108;23;20341;-81
2021/12/09 20:49:06;;;;;;;;;;;;;;;;;;;;;
2021/12/09 20:54:37;;;;;;;6.17;2.77;;;;;;;;;;5001476;28;20208;-82
2021/12/09 20:57:32;;;;;;;5.33;2.70;;;;;;;;;;5043431;28;20272;-83
2021/12/09 21:02:54;;;;;;;5.30;2.60;;;;;;;;;;5018062;28;20202;-81
2021/12/09 21:05:30;;;;;;;5.07;3.00;;;;;;;;;;5010896;28;20206;-83
2021/12/09 21:08:06;;;;;;;3.67;2.23;;;;;;;;;;5017787;28;20198;-81
2021/12/09 21:10:44;;;;;;;6.33;3.23;;;;;;;;;;5015664;28;20246;-83
2021/12/09 21:13:27;;;;;;;;;;;;;;;;;;;;;
2021/12/09 21:16:07;;;;;;;3.93;2.80;;;;;;;;;;5022566;28;20210;-81
2021/12/09 21:22:13;;;;;;;5.20;3.03;;;;;;;;;;5004166;28;20250;-81
2021/12/09 21:30:54;;;;;;;5.37;2.70;;;;;;;;;;5019456;28;20230;-80
2021/12/09 21:34:03;;;;;;;5.00;2.70;;;;;;;;;;4973984;28;20232;-80
2021/12/09 21:40:09;;;;;;;3.30;2.20;;;;;;;;;;4868220;29;20301;-81
2021/12/09 21:45:35;;;;;;;4.07;2.47;;;;;;;;;;4898470;29;20215;-81
2021/12/09 21:54:15;;;;;;;4.13;2.67;;;;;;;;;;4895214;29;20207;-81
2021/12/09 21:57:17;;;;;;;4.13;2.23;;;;;;;;;;4896898;29;20698;-80
2021/12/09 22:02:58;;;;;;;4.13;2.47;;;;;;;;;;4899153;29;20245;-81
2021/12/09 22:05:37;;;;;;;2.57;2.10;;;;;;;;;;4900826;29;20198;-80
2021/12/09 22:08:19;;;;;;;2.27;2.07;;;;;;;;;;4900946;29;20203;-81
2021/12/09 22:11:15;;;;;;;4.23;2.00;;;;;;;;;;4942334;29;20259;-81
2021/12/09 22:13:50;;;;;;;3.63;2.40;;;;;;;;;;4994520;28;20284;-81
2021/12/09 22:16:27;;;;;;;3.93;2.33;;;;;;;;;;5021732;28;20198;-81
2021/12/09 22:19:33;;;;;;;2.40;2.20;;;;;;;;;;5013060;28;20199;-81
2021/12/09 22:22:10;;;;;;;4.13;2.00;;;;;;;;;;5019267;28;20208;-81
2021/12/09 22:30:50;;;;;;;2.73;2.00;;;;;;;;;;5023168;22;20245;-81
2021/12/09 22:36:28;;;;;;;5.23;2.20;;;;;;;;;;4997600;28;20243;-81
2021/12/09 22:39:06;;;;;;;5.23;2.20;;;;;;;;;;5000906;28;20207;-81
2021/12/09 22:41:53;;;;;;;4.13;1.87;;;;;;;;;;5002685;28;20238;-82
2021/12/09 22:44:27;;;;;;;4.50;2.03;;;;;;;;;;5002658;28;20207;-81
2021/12/09 22:46:59;;;;;;;2.33;1.90;;;;;;;;;;5003305;28;20238;-79
2021/12/09 22:52:41;;;;;;;4.63;2.03;;;;;;;;;;4985598;28;20203;-81
2021/12/09 22:58:09;;;;;;;4.37;2.00;;;;;;;;;;4997254;28;20261;-81
2021/12/09 23:00:58;;;;;;;4.20;2.20;;;;;;;;;;4992872;28;20220;-80
2021/12/09 23:03:30;;;;;;;5.20;2.63;;;;;;;;;;4982962;28;20215;-82
2021/12/09 23:06:02;;;;;;;6.30;2.27;;;;;;;;;;5000756;28;20226;-81
2021/12/09 23:08:51;;;;;;;5.63;2.30;;;;;;;;;;5009616;28;20207;-81
2021/12/09 23:11:41;;;;;;;6.77;2.20;;;;;;;;;;4999258;28;20227;-81
2021/12/09 23:14:22;;;;;;;3.53;2.03;;;;;;;;;;4998652;28;20207;-82
2021/12/09 23:16:54;;;;;;;3.87;2.33;;;;;;;;;;4990311;28;20203;-81
2021/12/09 23:19:38;;;;;;;5.60;2.03;;;;;;;;;;4998875;28;20207;-81
2021/12/09 23:22:31;;;;;;;4.90;2.10;;;;;;;;;;4998491;28;20206;-81
2021/12/09 23:25:20;;;;;;;4.03;1.90;;;;;;;;;;4997494;28;20195;-80
2021/12/09 23:27:56;;;;;;;4.67;2.70;;;;;;;;;;4997704;28;20203;-81
2021/12/09 23:30:39;;;;;;;6.77;1.97;;;;;;;;;;4997227;28;20222;-81
2021/12/09 23:33:30;;;;;;;2.10;1.90;;;;;;;;;;4997376;28;20203;-81
2021/12/09 23:36:09;;;;;;;2.30;1.87;;;;;;;;;;4995409;28;20278;-81
2021/12/09 23:39:02;;;;;;;4.00;2.30;;;;;;;;;;4984689;28;20299;-81
2021/12/09 23:41:55;;;;;;;3.73;2.17;;;;;;;;;;4996882;28;20216;-81
2021/12/09 23:44:32;;;;;;;6.20;2.20;;;;;;;;;;5000249;28;20235;-82
2021/12/09 23:47:02;;;;;;;6.57;2.20;;;;;;;;;;4983156;28;20223;-81
2021/12/09 23:49:40;;;;;;;4.60;2.37;;;;;;;;;;4998156;28;20199;-79
2021/12/09 23:52:14;;;;;;;3.83;2.50;;;;;;;;;;5000424;28;20199;-82
2021/12/09 23:54:50;;;;;;;3.87;2.30;;;;;;;;;;4997223;28;20293;-81
2021/12/09 23:57:30;;;;;;;5.40;2.23;;;;;;;;;;5001164;28;20203;-81
